Time;durP1;ratioP1;P1;durP2;ratioP2;P2;SDS_P1;SDS_P2;PMS_P1;PMS_P2;Temp;Humidity;BMP_temperature;BMP_pressure;BME280_temperature;BME280_humidity;BME280_pressure;Samples;Min_cycle;Max_cycle;Signal;HPM_P1;HPM_P2
2021/11/02 00:00:03;;;;;;;7.53;3.47;;;9.20;82.00;;;;;;5075289;28;20036;-37
2021/11/02 00:02:28;;;;;;;11.70;3.30;;;9.00;82.10;;;;;;5075476;28;20460;-38
2021/11/02 00:04:54;;;;;;;7.55;3.55;;;8.90;82.50;;;;;;5075282;28;20063;-37
2021/11/02 00:07:20;;;;;;;8.68;4.68;;;8.80;83.00;;;;;;5074501;28;20028;-38
2021/11/02 00:09:47;;;;;;;9.55;3.88;;;8.80;83.20;;;;;;5075297;28;20027;-36
2021/11/02 00:12:14;;;;;;;14.82;4.85;;;8.80;83.40;;;;;;5075023;28;20039;-36
2021/11/02 00:14:40;;;;;;;9.40;3.78;;;8.70;83.60;;;;;;5075083;28;20469;-42
2021/11/02 00:17:11;;;;;;;4.50;2.83;;;8.60;83.90;;;;;;5075138;28;20025;-37
2021/11/02 00:19:40;;;;;;;9.48;3.55;;;8.60;84.10;;;;;;5075187;28;20029;-37
2021/11/02 00:22:16;;;;;;;16.13;4.05;;;8.60;84.40;;;;;;5075366;28;20364;-37
2021/11/02 00:25:00;;;;;;;8.98;2.90;;;8.60;84.40;;;;;;5074834;28;20031;-37
2021/11/02 00:27:26;;;;;;;11.60;4.47;;;8.70;84.30;;;;;;5075064;28;20104;-37
2021/11/02 00:29:54;;;;;;;9.23;3.72;;;8.60;84.40;;;;;;5075037;28;20021;-37
2021/11/02 00:32:19;;;;;;;10.35;3.30;;;8.60;84.50;;;;;;5074753;28;20023;-37
2021/11/02 00:34:45;;;;;;;10.35;3.53;;;8.60;84.60;;;;;;5073379;28;20033;-37
2021/11/02 00:37:11;;;;;;;10.00;3.15;;;8.50;84.70;;;;;;5074678;28;20067;-37
2021/11/02 00:39:37;;;;;;;8.68;3.95;;;8.60;84.80;;;;;;5074843;28;20020;-37
2021/11/02 00:42:02;;;;;;;8.35;2.97;;;8.50;84.60;;;;;;5074804;28;20032;-37
2021/11/02 00:44:28;;;;;;;5.80;2.40;;;8.60;84.70;;;;;;5074525;28;20457;-37
2021/11/02 00:46:56;;;;;;;6.15;3.05;;;8.60;84.60;;;;;;5074326;28;20497;-37
2021/11/02 00:49:24;;;;;;;6.18;3.15;;;8.60;84.60;;;;;;5074426;28;20017;-37
2021/11/02 00:51:51;;;;;;;7.78;2.90;;;8.60;84.70;;;;;;5074299;28;20021;-37
2021/11/02 00:54:17;;;;;;;6.90;3.17;;;8.60;84.60;;;;;;5074933;28;20020;-37
2021/11/02 00:56:44;;;;;;;8.00;3.00;;;8.60;84.50;;;;;;5074715;28;20027;-37
2021/11/02 00:59:10;;;;;;;10.95;2.72;;;8.60;84.60;;;;;;5074404;28;20025;-37
2021/11/02 01:01:39;;;;;;;7.97;3.15;;;8.50;84.60;;;;;;5074165;28;20032;-37
2021/11/02 01:04:05;;;;;;;10.00;3.63;;;8.60;84.70;;;;;;5074084;28;20040;-37
2021/11/02 01:06:36;;;;;;;7.15;3.15;;;8.60;84.60;;;;;;5074102;28;20556;-37
2021/11/02 01:09:06;;;;;;;9.55;4.38;;;8.60;84.60;;;;;;5073905;28;20047;-37
2021/11/02 01:11:33;;;;;;;7.07;4.50;;;8.60;84.00;;;;;;5073095;28;20020;-37
2021/11/02 01:13:59;;;;;;;10.13;4.38;;;8.30;84.70;;;;;;5074216;28;20056;-37
2021/11/02 01:16:25;;;;;;;9.63;4.32;;;8.20;85.60;;;;;;5073863;28;20064;-36
2021/11/02 01:18:55;;;;;;;11.07;5.00;;;8.10;86.00;;;;;;5073897;28;20488;-36
2021/11/02 01:21:22;;;;;;;15.23;4.82;;;8.00;86.30;;;;;;5073946;28;20448;-36
2021/11/02 01:23:48;;;;;;;12.32;4.63;;;7.90;86.50;;;;;;5073930;28;20490;-36
2021/11/02 01:26:14;;;;;;;8.63;3.80;;;7.90;86.80;;;;;;5073642;28;20035;-36
2021/11/02 01:28:40;;;;;;;8.77;5.63;;;8.00;86.60;;;;;;5073575;28;20032;-36
2021/11/02 01:31:06;;;;;;;9.73;3.92;;;8.10;86.40;;;;;;5073869;28;20021;-36
2021/11/02 01:33:32;;;;;;;13.70;4.15;;;8.20;86.20;;;;;;5073729;28;20059;-36
2021/11/02 01:35:58;;;;;;;8.68;3.10;;;8.30;86.00;;;;;;5073777;28;20109;-36
2021/11/02 01:38:23;;;;;;;11.88;4.80;;;8.40;85.70;;;;;;5072307;28;20116;-37
2021/11/02 01:40:51;;;;;;;11.93;3.28;;;8.30;85.60;;;;;;5072052;28;20154;-36
2021/11/02 01:43:18;;;;;;;9.18;3.80;;;8.30;85.70;;;;;;5073250;28;20032;-36
2021/11/02 01:45:44;;;;;;;11.00;3.00;;;8.30;85.60;;;;;;5072051;28;20032;-37
2021/11/02 01:48:17;;;;;;;7.32;2.72;;;8.30;85.70;;;;;;5073458;28;20033;-36
2021/11/02 01:50:44;;;;;;;9.13;3.28;;;8.20;86.00;;;;;;5073481;28;20024;-37
2021/11/02 01:53:11;;;;;;;9.13;3.13;;;8.10;86.40;;;;;;5073219;28;20070;-36
2021/11/02 01:55:36;;;;;;;7.68;3.90;;;7.90;86.50;;;;;;5071901;28;20024;-37
2021/11/02 01:58:02;;;;;;;6.22;2.92;;;7.80;86.90;;;;;;5073289;28;20460;-37
2021/11/02 02:00:28;;;;;;;6.40;3.20;;;7.80;87.30;;;;;;5072818;28;20413;-37
2021/11/02 02:03:26;;;;;;;10.52;4.15;;;7.70;87.40;;;;;;5073075;28;20074;-37
2021/11/02 02:06:08;;;;;;;11.30;4.30;;;7.60;87.40;;;;;;5072659;28;20041;-37
2021/11/02 02:08:52;;;;;;;7.18;4.13;;;7.60;87.80;;;;;;5073012;28;20027;-36
2021/11/02 02:11:26;;;;;;;8.13;3.67;;;7.50;88.10;;;;;;5072751;28;20035;-37
2021/11/02 02:14:22;;;;;;;8.65;3.55;;;7.50;88.20;;;;;;5071436;28;20031;-36
2021/11/02 02:16:50;;;;;;;11.20;5.47;;;7.60;88.30;;;;;;5073046;28;20028;-36
2021/11/02 02:19:35;;;;;;;8.10;3.08;;;7.70;88.30;;;;;;5072499;28;20025;-36
2021/11/02 02:22:31;;;;;;;7.07;3.10;;;7.80;88.10;;;;;;5072467;28;20032;-36
2021/11/02 02:25:16;;;;;;;9.70;3.03;;;7.90;87.80;;;;;;5072444;28;20039;-36
2021/11/02 02:27:44;;;;;;;17.73;5.40;;;8.00;87.30;;;;;;5072536;28;20070;-37
2021/11/02 02:30:15;;;;;;;6.03;2.58;;;8.10;86.80;;;;;;5070871;28;20025;-36
2021/11/02 02:32:48;;;;;;;4.07;2.70;;;8.20;86.50;;;;;;5072464;28;20021;-36
2021/11/02 02:35:18;;;;;;;6.25;3.30;;;8.30;86.40;;;;;;5073024;28;20076;-36
2021/11/02 02:37:46;;;;;;;9.55;2.92;;;8.40;85.60;;;;;;5072652;28;20029;-36
2021/11/02 02:40:13;;;;;;;10.93;2.70;;;8.60;85.20;;;;;;5071378;28;20031;-37
2021/11/02 02:42:39;;;;;;;12.73;2.53;;;8.70;84.50;;;;;;5072908;28;20036;-37
2021/11/02 02:45:07;;;;;;;5.20;2.63;;;8.80;84.30;;;;;;5073315;28;20059;-38
2021/11/02 02:47:35;;;;;;;6.75;2.47;;;8.80;83.60;;;;;;5072723;28;20060;-37
2021/11/02 02:50:03;;;;;;;8.25;2.80;;;8.60;84.60;;;;;;5072520;28;20024;-37
2021/11/02 02:52:31;;;;;;;8.23;2.33;;;8.50;84.90;;;;;;5072510;28;20472;-37
2021/11/02 02:54:58;;;;;;;8.15;2.58;;;8.70;84.60;;;;;;5072956;28;20070;-37
2021/11/02 02:57:25;;;;;;;7.78;2.80;;;8.80;84.10;;;;;;5072749;28;20024;-37
2021/11/02 02:59:52;;;;;;;4.65;2.20;;;8.80;83.90;;;;;;5072710;28;20070;-37
2021/11/02 03:02:19;;;;;;;7.20;2.55;;;8.80;84.20;;;;;;5072471;28;20029;-37
2021/11/02 03:04:47;;;;;;;5.90;1.88;;;8.70;84.70;;;;;;5072721;28;20039;-37
2021/11/02 03:07:16;;;;;;;6.88;2.30;;;8.70;84.80;;;;;;5072397;28;20090;-39
2021/11/02 03:09:43;;;;;;;6.10;2.53;;;8.60;85.00;;;;;;5070998;28;20383;-38
2021/11/02 03:12:11;;;;;;;7.05;2.97;;;8.60;84.80;;;;;;5072260;28;20025;-37
2021/11/02 03:15:08;;;;;;;5.20;2.35;;;8.60;85.00;;;;;;5071347;28;20093;-37
2021/11/02 03:18:02;;;;;;;16.38;2.70;;;8.60;85.30;;;;;;5072161;28;20029;-38
2021/11/02 03:47:57;;;;;;;3.70;1.70;;;8.00;86.70;;;;;;5076307;28;20071;-37
2021/11/02 03:56:06;;;;;;;9.45;2.28;;;7.80;87.10;;;;;;5075780;28;20043;-37
2021/11/02 03:58:42;;;;;;;7.03;2.03;;;7.80;87.30;;;;;;5075527;28;20074;-37
2021/11/02 04:23:32;;;;;;;5.63;2.42;;;7.60;87.90;;;;;;5075516;28;20035;-37
2021/11/02 04:42:49;;;;;;;10.07;2.47;;;7.50;88.10;;;;;;5074754;28;20043;-37
2021/11/02 05:59:27;;;;;;;6.30;3.35;;;6.80;90.10;;;;;;5073400;28;20033;-36
2021/11/02 06:06:33;;;;;;;6.00;2.88;;;7.00;90.10;;;;;;5073348;28;20076;-36
2021/11/02 06:09:25;;;;;;;5.35;2.95;;;7.00;89.80;;;;;;5073032;28;20036;-35
2021/11/02 06:23:41;;;;;;;3.35;1.90;;;7.00;89.80;;;;;;5072693;28;20087;-36
2021/11/02 06:28:55;;;;;;;5.03;2.72;;;7.10;89.50;;;;;;5072228;28;20396;-37
2021/11/02 06:31:33;;;;;;;7.75;2.88;;;7.00;89.60;;;;;;5072337;28;20025;-36
2021/11/02 06:45:13;;;;;;;7.03;2.58;;;7.00;89.70;;;;;;5072779;28;20025;-37
2021/11/02 06:51:11;;;;;;;7.90;2.85;;;7.00;89.50;;;;;;5071802;28;20028;-37
2021/11/02 07:15:47;;;;;;;7.72;2.95;;;7.60;87.70;;;;;;5051883;28;20512;-36
2021/11/02 07:20:54;;;;;;;5.47;2.88;;;7.60;87.40;;;;;;5075821;28;20032;-36
2021/11/02 07:28:56;;;;;;;5.13;3.25;;;7.80;86.50;;;;;;5075052;28;20020;-37
2021/11/02 08:47:34;;;;;;;;;;;10.10;77.60;;;;;;5073905;28;20078;-49
2021/11/02 08:50:01;;;;;;;7.65;2.67;;;10.30;77.00;;;;;;5072639;28;19950;-47
2021/11/02 08:52:28;;;;;;;7.57;2.45;;;10.00;78.00;;;;;;5073532;28;20372;-47
2021/11/02 08:54:55;;;;;;;2.17;1.67;;;10.30;77.70;;;;;;5072595;28;20112;-48
2021/11/02 08:57:22;;;;;;;7.03;1.77;;;10.90;76.10;;;;;;5073172;28;20127;-48
2021/11/02 08:59:49;;;;;;;10.52;2.03;;;10.60;75.50;;;;;;5073073;28;20036;-47
2021/11/02 09:02:25;;;;;;;3.28;1.85;;;10.10;77.40;;;;;;5072811;28;20044;-46
2021/11/02 09:04:56;;;;;;;6.78;2.05;;;9.90;78.80;;;;;;5072738;28;20094;-47
2021/11/02 09:07:26;;;;;;;4.57;2.45;;;10.20;78.80;;;;;;5071371;28;20028;-46
2021/11/02 09:09:52;;;;;;;7.70;4.22;;;10.20;77.60;;;;;;5072601;28;20017;-48
2021/11/02 09:12:19;;;;;;;7.38;1.98;;;10.20;77.20;;;;;;5072650;28;20081;-46
2021/11/02 09:14:48;;;;;;;7.10;3.50;;;10.50;75.50;;;;;;5073059;28;20455;-49
2021/11/02 09:17:16;;;;;;;5.60;1.60;;;10.50;76.10;;;;;;5072531;28;20168;-48
2021/11/02 09:19:42;;;;;;;4.72;2.08;;;10.50;75.90;;;;;;5072781;28;20342;-48
2021/11/02 09:22:11;;;;;;;12.38;2.60;;;10.50;75.70;;;;;;5070893;28;20039;-47
2021/11/02 09:24:42;;;;;;;9.48;2.78;;;10.50;76.20;;;;;;5073297;28;20419;-46
2021/11/02 09:27:09;;;;;;;8.27;3.53;;;10.50;76.30;;;;;;5072549;28;20332;-46
2021/11/02 09:29:39;;;;;;;2.65;1.65;;;10.40;76.10;;;;;;5072820;28;20476;-46
2021/11/02 09:32:08;;;;;;;7.10;1.48;;;10.50;75.80;;;;;;5072867;28;20044;-45
2021/11/02 09:34:34;;;;;;;6.82;1.30;;;10.30;75.80;;;;;;5071418;28;20562;-47
2021/11/02 09:37:11;;;;;;;8.05;2.00;;;10.30;76.00;;;;;;5072285;28;20028;-47
2021/11/02 09:39:41;;;;;;;3.25;1.27;;;10.10;76.70;;;;;;5072708;28;20036;-47
2021/11/02 09:42:31;;;;;;;8.88;1.92;;;10.10;76.70;;;;;;5072862;28;20354;-47
2021/11/02 09:45:09;;;;;;;6.45;1.63;;;10.10;76.50;;;;;;5072628;28;20114;-47
2021/11/02 09:48:12;;;;;;;4.20;1.85;;;10.00;76.20;;;;;;5072292;28;20457;-49
2021/11/02 09:50:50;;;;;;;6.97;2.67;;;10.20;75.80;;;;;;5072401;28;20119;-49
2021/11/02 09:53:45;;;;;;;7.35;2.38;;;10.30;75.50;;;;;;5073018;28;20111;-47
2021/11/02 09:56:43;;;;;;;5.80;1.75;;;10.20;75.40;;;;;;5072607;28;20074;-50
2021/11/02 09:59:36;;;;;;;5.75;1.63;;;10.20;75.10;;;;;;5071985;28;20028;-47
2021/11/02 10:02:12;;;;;;;4.10;1.50;;;10.40;74.40;;;;;;5072828;28;20065;-46
2021/11/02 10:05:07;;;;;;;4.03;1.63;;;10.50;74.00;;;;;;5071692;28;20025;-44
2021/11/02 10:07:41;;;;;;;2.72;1.30;;;10.20;74.90;;;;;;5071499;28;20071;-46
2021/11/02 10:10:22;;;;;;;4.80;1.95;;;10.30;74.60;;;;;;5072163;28;20104;-49
2021/11/02 10:12:56;;;;;;;23.20;5.72;;;10.30;74.90;;;;;;5072550;28;20334;-49
2021/11/02 10:15:59;;;;;;;3.85;1.77;;;10.30;75.20;;;;;;5071753;28;20020;-51
2021/11/02 10:18:40;;;;;;;8.27;1.60;;;10.30;74.50;;;;;;5029578;28;20025;-49
2021/11/02 10:21:34;;;;;;;6.70;1.80;;;10.60;73.80;;;;;;5068218;28;20139;-50
2021/11/02 10:24:22;;;;;;;9.25;2.50;;;10.80;73.50;;;;;;5071836;28;20024;-46
2021/11/02 10:27:16;;;;;;;5.13;1.40;;;11.10;73.00;;;;;;5072524;28;20453;-47
2021/11/02 10:30:18;;;;;;;5.32;1.67;;;11.10;72.90;;;;;;5071702;28;20035;-46
2021/11/02 10:32:46;;;;;;;2.38;1.15;;;10.90;73.70;;;;;;5072442;28;20077;-47
2021/11/02 10:35:26;;;;;;;2.80;1.77;;;10.80;73.50;;;;;;5070626;28;20031;-49
2021/11/02 10:38:11;;;;;;;9.13;2.50;;;10.70;73.70;;;;;;5072006;28;20032;-48
2021/11/02 10:40:52;;;;;;;2.00;1.50;;;10.80;74.30;;;;;;5070448;28;20036;-47
2021/11/02 10:43:26;;;;;;;6.60;1.77;;;10.80;73.50;;;;;;5071500;28;20040;-47
2021/11/02 10:46:01;;;;;;;4.10;1.33;;;10.90;73.30;;;;;;5071817;28;20024;-47
2021/11/02 10:48:40;;;;;;;3.80;1.65;;;11.10;72.20;;;;;;5071251;28;20104;-37
2021/11/02 10:51:09;;;;;;;2.80;1.80;;;10.90;72.90;;;;;;5071229;28;20021;-37
2021/11/02 10:53:45;;;;;;;5.35;1.73;;;10.80;73.80;;;;;;5075239;28;20054;-38
2021/11/02 10:56:40;;;;;;;2.90;1.40;;;10.90;73.00;;;;;;5074069;28;20037;-37
2021/11/02 10:59:16;;;;;;;5.13;1.40;;;11.10;72.70;;;;;;5066109;28;20047;-37
2021/11/02 11:01:43;;;;;;;2.28;1.30;;;11.20;72.50;;;;;;5075620;28;20480;-47
2021/11/02 11:04:12;;;;;;;7.80;1.45;;;11.00;72.40;;;;;;5075303;28;20152;-46
2021/11/02 11:06:42;;;;;;;4.88;1.60;;;10.80;73.20;;;;;;5075164;28;20070;-47
2021/11/02 11:09:11;;;;;;;5.35;1.27;;;10.90;73.20;;;;;;5075012;28;20498;-46
2021/11/02 11:11:52;;;;;;;3.17;1.52;;;11.10;73.40;;;;;;5074320;28;20461;-48
2021/11/02 11:14:22;;;;;;;7.85;1.45;;;11.00;73.20;;;;;;5075495;28;20357;-49
2021/11/02 11:16:55;;;;;;;3.90;1.42;;;11.10;73.10;;;;;;5074797;28;20020;-48
2021/11/02 11:19:42;;;;;;;2.38;1.70;;;11.20;72.10;;;;;;5075389;28;20032;-48
2021/11/02 11:22:10;;;;;;;1.27;1.17;;;11.00;73.10;;;;;;5073921;28;20024;-46
2021/11/02 11:25:11;;;;;;;1.95;0.73;;;11.20;72.70;;;;;;5073560;28;20035;-47
2021/11/02 11:27:51;;;;;;;3.67;1.88;;;11.40;71.70;;;;;;5072652;28;20112;-49
2021/11/02 11:30:18;;;;;;;1.50;1.10;;;11.30;72.60;;;;;;5075188;28;20099;-38
2021/11/02 11:32:46;;;;;;;2.83;1.70;;;11.30;72.50;;;;;;5074712;28;20024;-38
2021/11/02 11:35:12;;;;;;;1.13;0.68;;;11.30;72.60;;;;;;5074801;28;20096;-36
2021/11/02 11:37:44;;;;;;;7.82;1.25;;;10.90;74.10;;;;;;5074137;28;20047;-38
2021/11/02 11:40:11;;;;;;;2.95;1.30;;;10.90;74.30;;;;;;5056957;28;20020;-37
2021/11/02 11:42:38;;;;;;;1.25;0.80;;;11.10;74.00;;;;;;5074700;28;20028;-37
2021/11/02 11:45:16;;;;;;;3.28;0.88;;;11.10;73.80;;;;;;5075495;28;20059;-37
2021/11/02 11:47:42;;;;;;;2.17;1.13;;;10.90;74.30;;;;;;5073895;28;20114;-37
2021/11/02 11:50:25;;;;;;;2.15;1.05;;;11.10;74.00;;;;;;5074660;28;20425;-36
2021/11/02 11:52:54;;;;;;;2.35;1.73;;;11.30;73.20;;;;;;5074412;28;20028;-37
2021/11/02 11:55:41;;;;;;;2.85;0.93;;;11.30;73.90;;;;;;5074356;28;20033;-37
2021/11/02 11:58:24;;;;;;;1.80;1.08;;;11.30;73.00;;;;;;5073119;28;20037;-37
2021/11/02 12:01:13;;;;;;;1.63;1.08;;;11.40;73.30;;;;;;5056743;28;20112;-37
2021/11/02 12:04:06;;;;;;;1.75;0.93;;;11.40;72.60;;;;;;5072394;28;20024;-36
2021/11/02 12:06:58;;;;;;;2.08;1.50;;;11.30;72.80;;;;;;5074598;28;20051;-37
2021/11/02 12:09:26;;;;;;;2.05;1.10;;;11.30;72.80;;;;;;5073176;28;20074;-37
2021/11/02 12:12:00;;;;;;;2.47;0.95;;;12.00;71.00;;;;;;5073694;28;20427;-37
2021/11/02 12:14:27;;;;;;;9.00;2.95;;;12.20;70.10;;;;;;5074562;28;20085;-37
2021/11/02 12:16:58;;;;;;;2.50;1.40;;;12.20;69.50;;;;;;5074103;28;20013;-38
2021/11/02 12:19:33;;;;;;;3.20;1.25;;;12.00;69.60;;;;;;5074511;28;20024;-38
2021/11/02 12:22:06;;;;;;;5.20;1.17;;;11.90;70.50;;;;;;5074412;28;20033;-37
2021/11/02 12:24:35;;;;;;;1.30;0.70;;;12.10;69.10;;;;;;5074095;28;20476;-37
2021/11/02 12:27:18;;;;;;;1.33;0.85;;;11.90;70.20;;;;;;5072757;28;20028;-38
2021/11/02 12:29:48;;;;;;;3.33;1.15;;;12.10;69.90;;;;;;5073845;28;20024;-38
2021/11/02 12:32:17;;;;;;;5.75;1.30;;;12.20;69.50;;;;;;5074638;28;20044;-37
2021/11/02 12:34:50;;;;;;;1.33;0.75;;;11.80;70.20;;;;;;5073823;28;20056;-37
2021/11/02 12:37:17;;;;;;;2.08;0.90;;;11.70;70.30;;;;;;5074120;28;20055;-37
2021/11/02 12:39:45;;;;;;;1.63;0.90;;;11.70;70.70;;;;;;5073797;28;20025;-37
2021/11/02 12:42:12;;;;;;;2.70;1.23;;;11.90;69.90;;;;;;5073823;28;20033;-36
2021/11/02 12:44:39;;;;;;;2.17;1.63;;;11.70;70.50;;;;;;5073508;28;20032;-38
2021/11/02 12:47:11;;;;;;;2.58;1.05;;;11.90;70.30;;;;;;5074003;28;20040;-38
2021/11/02 12:49:45;;;;;;;2.72;0.82;;;11.80;70.10;;;;;;5073833;28;20457;-39
2021/11/02 12:52:26;;;;;;;3.40;0.57;;;11.90;68.90;;;;;;5072826;28;20024;-38
2021/11/02 12:55:25;;;;;;;1.38;0.68;;;11.60;69.20;;;;;;5073776;28;20090;-38
2021/11/02 12:58:12;;;;;;;2.28;0.60;;;11.80;69.40;;;;;;5072849;28;20037;-37
2021/11/02 13:00:53;;;;;;;3.08;0.65;;;12.00;68.10;;;;;;5072256;28;20116;-37
2021/11/02 13:03:22;;;;;;;2.60;0.60;;;12.10;67.30;;;;;;5073271;28;20027;-39
2021/11/02 13:05:59;;;;;;;3.70;0.50;;;11.60;68.50;;;;;;5072790;28;20040;-36
2021/11/02 13:08:55;;;;;;;1.10;0.47;;;11.70;68.80;;;;;;5073166;28;20088;-37
2021/11/02 13:11:22;;;;;;;3.13;0.75;;;11.80;67.80;;;;;;5067365;28;20028;-37
2021/11/02 13:13:58;;;;;;;1.67;0.70;;;11.70;68.00;;;;;;5073095;28;20081;-37
2021/11/02 13:16:26;;;;;;;1.95;1.10;;;11.60;68.50;;;;;;5070946;28;20143;-37
2021/11/02 13:18:52;;;;;;;1.77;0.50;;;11.80;68.30;;;;;;5072923;28;20135;-37
2021/11/02 13:21:34;;;;;;;1.88;0.80;;;11.80;68.00;;;;;;5072766;28;20028;-37
2021/11/02 13:24:06;;;;;;;1.83;0.90;;;11.90;67.60;;;;;;5075869;28;20424;-37
2021/11/02 13:26:32;;;;;;;2.03;0.60;;;11.80;67.80;;;;;;5072456;28;20028;-37
2021/11/02 13:29:27;;;;;;;3.50;0.77;;;11.80;67.60;;;;;;5072887;28;20330;-39
2021/11/02 13:32:00;;;;;;;1.70;0.50;;;12.00;67.20;;;;;;5072637;28;20020;-37
2021/11/02 13:34:35;;;;;;;4.53;0.90;;;11.60;68.60;;;;;;5072956;28;20028;-37
2021/11/02 13:37:02;;;;;;;1.05;0.85;;;11.70;68.40;;;;;;5072434;28;20555;-37
2021/11/02 13:39:29;;;;;;;1.63;1.25;;;11.50;69.10;;;;;;5072420;28;20499;-38
2021/11/02 13:41:56;;;;;;;2.13;1.13;;;11.60;68.60;;;;;;5072058;28;20044;-38
2021/11/02 13:44:24;;;;;;;4.13;1.27;;;11.60;69.10;;;;;;5072433;28;20473;-38
2021/11/02 13:46:58;;;;;;;5.00;0.82;;;11.70;68.90;;;;;;5071895;28;20024;-38
2021/11/02 13:49:24;;;;;;;1.27;0.52;;;11.30;69.50;;;;;;5071981;28;20060;-38
2021/11/02 13:51:51;;;;;;;1.00;0.57;;;11.40;69.70;;;;;;5072196;28;20417;-38
2021/11/02 13:54:17;;;;;;;5.18;0.70;;;11.40;69.70;;;;;;5072402;28;20372;-38
2021/11/02 13:56:45;;;;;;;1.05;0.40;;;11.30;71.10;;;;;;5070607;28;20389;-39
2021/11/02 13:59:13;;;;;;;0.88;0.80;;;11.30;70.70;;;;;;5071713;28;20036;-38
2021/11/02 14:01:58;;;;;;;1.60;0.47;;;11.40;70.60;;;;;;5072219;28;20064;-39
2021/11/02 14:04:43;;;;;;;3.65;0.60;;;11.70;69.10;;;;;;5071941;28;20036;-38
2021/11/02 14:07:18;;;;;;;1.73;0.98;;;11.60;69.80;;;;;;5072010;28;20090;-38
2021/11/02 14:10:08;;;;;;;1.42;0.90;;;11.50;69.70;;;;;;5071015;28;20366;-38
2021/11/02 14:12:51;;;;;;;0.98;0.47;;;11.80;69.40;;;;;;5072601;28;20020;-37
2021/11/02 14:15:18;;;;;;;0.68;0.68;;;11.80;69.00;;;;;;5071742;28;20100;-37
2021/11/02 14:18:08;;;;;;;2.92;0.88;;;11.90;68.90;;;;;;5071737;28;20048;-39
2021/11/02 14:20:38;;;;;;;5.65;1.30;;;11.80;70.00;;;;;;5071530;28;20453;-38
2021/11/02 14:23:15;;;;;;;2.33;1.13;;;11.70;70.00;;;;;;5072119;28;20432;-36
2021/11/02 14:25:41;;;;;;;1.17;0.70;;;11.70;70.70;;;;;;5071375;28;20357;-37
2021/11/02 14:28:08;;;;;;;0.73;0.70;;;11.40;71.20;;;;;;5071260;28;20041;-37
2021/11/02 14:30:44;;;;;;;0.73;0.73;;;11.40;71.00;;;;;;5071942;28;20103;-38
2021/11/02 14:33:20;;;;;;;0.88;0.80;;;11.40;71.40;;;;;;5071556;28;20020;-38
2021/11/02 14:36:01;;;;;;;1.33;0.80;;;11.30;71.70;;;;;;5071897;28;20044;-37
2021/11/02 14:38:28;;;;;;;;;;;11.20;72.40;;;;;;5072355;28;20395;-37
2021/11/02 14:40:59;;;;;;;1.50;1.00;;;11.30;72.40;;;;;;5072507;28;19904;-37
2021/11/02 14:43:30;;;;;;;2.67;1.90;;;11.30;72.40;;;;;;5072178;28;20086;-37
2021/11/02 14:46:04;;;;;;;2.25;1.00;;;11.10;73.10;;;;;;5072007;28;20021;-38
2021/11/02 14:48:36;;;;;;;2.00;1.13;;;11.10;73.20;;;;;;5070601;28;20107;-37
2021/11/02 14:51:06;;;;;;;1.83;0.73;;;11.10;73.30;;;;;;5072036;28;20449;-37
2021/11/02 14:53:35;;;;;;;1.27;0.77;;;11.10;72.90;;;;;;5071607;28;20044;-37
2021/11/02 14:56:07;;;;;;;2.60;0.70;;;11.00;73.50;;;;;;5071570;28;20483;-37
2021/11/02 14:58:39;;;;;;;2.88;0.77;;;10.90;73.60;;;;;;5053129;28;20121;-36
2021/11/02 15:01:35;;;;;;;2.42;0.80;;;10.90;73.70;;;;;;5071096;28;20025;-38
2021/11/02 15:04:04;;;;;;;1.10;0.82;;;10.80;74.30;;;;;;5071170;28;20029;-37
2021/11/02 15:06:44;;;;;;;8.98;1.10;;;10.80;73.80;;;;;;5071033;28;20057;-37
2021/11/02 15:09:12;;;;;;;2.55;1.45;;;10.80;74.00;;;;;;5071190;28;20028;-37
2021/11/02 15:11:43;;;;;;;5.25;0.90;;;10.90;73.40;;;;;;5072102;28;20044;-36
2021/11/02 15:14:43;;;;;;;1.17;0.85;;;10.90;74.00;;;;;;5071148;28;20491;-37
2021/11/02 15:17:11;;;;;;;1.48;1.13;;;10.80;74.00;;;;;;5037739;28;20388;-37
2021/11/02 15:19:39;;;;;;;3.17;1.42;;;10.80;74.20;;;;;;5070993;28;20047;-38
2021/11/02 15:22:17;;;;;;;3.28;1.30;;;10.80;74.20;;;;;;5070201;28;20132;-38
2021/11/02 15:24:55;;;;;;;2.80;1.92;;;10.90;74.00;;;;;;5070118;28;20024;-39
2021/11/02 15:27:24;;;;;;;0.93;0.75;;;10.80;74.20;;;;;;5071564;28;20477;-46
2021/11/02 15:30:00;;;;;;;3.22;1.55;;;10.80;74.60;;;;;;5069905;28;20032;-37
2021/11/02 15:32:38;;;;;;;1.30;0.93;;;10.90;74.20;;;;;;5071888;28;20021;-38
2021/11/02 15:35:06;;;;;;;1.40;0.77;;;10.80;74.80;;;;;;5070067;28;20257;-37
2021/11/02 15:37:39;;;;;;;3.45;1.38;;;10.80;75.20;;;;;;5071099;28;20059;-37
2021/11/02 15:40:06;;;;;;;2.70;1.05;;;10.80;75.50;;;;;;5075429;28;20334;-38
2021/11/02 15:42:45;;;;;;;6.78;1.48;;;10.80;75.30;;;;;;5074805;28;20017;-37
2021/11/02 15:45:35;;;;;;;3.92;1.30;;;10.70;75.70;;;;;;5075535;28;20108;-38
2021/11/02 15:48:05;;;;;;;3.22;1.50;;;10.80;75.70;;;;;;5073468;28;20086;-37
2021/11/02 15:50:31;;;;;;;4.43;1.38;;;10.80;75.90;;;;;;5075483;28;20066;-37
2021/11/02 15:52:58;;;;;;;4.35;1.95;;;10.70;76.10;;;;;;5075118;28;20050;-47
2021/11/02 15:55:26;;;;;;;1.58;1.35;;;10.70;76.20;;;;;;5074949;28;20032;-47
2021/11/02 15:57:57;;;;;;;2.42;1.20;;;10.70;76.10;;;;;;5075030;28;20060;-48
2021/11/02 16:00:26;;;;;;;2.63;1.00;;;10.60;76.80;;;;;;5073556;28;20549;-47
2021/11/02 16:02:52;;;;;;;1.35;1.25;;;10.60;76.40;;;;;;5074620;28;20024;-45
2021/11/02 16:05:23;;;;;;;1.40;1.30;;;10.60;76.50;;;;;;5074185;28;20048;-47
2021/11/02 16:07:51;;;;;;;1.65;1.20;;;10.60;76.50;;;;;;5073566;28;20440;-49
2021/11/02 16:10:17;;;;;;;1.67;0.90;;;10.70;76.30;;;;;;5075198;28;20058;-47
2021/11/02 16:12:46;;;;;;;2.85;0.70;;;10.40;76.70;;;;;;5075062;28;20044;-47
2021/11/02 16:15:18;;;;;;;1.02;0.77;;;10.30;77.20;;;;;;5075096;28;20059;-48
2021/11/02 16:17:53;;;;;;;1.85;0.88;;;10.50;76.60;;;;;;5074258;28;20353;-48
2021/11/02 16:20:35;;;;;;;1.52;1.00;;;10.30;76.90;;;;;;5073058;28;20024;-47
2021/11/02 16:23:18;;;;;;;2.28;0.60;;;10.30;77.20;;;;;;5075219;28;20094;-47
2021/11/02 16:25:47;;;;;;;3.88;0.68;;;10.30;74.90;;;;;;5073813;28;20096;-48
2021/11/02 16:28:20;;;;;;;0.73;0.57;;;10.10;74.70;;;;;;5074299;28;20097;-46
2021/11/02 16:30:54;;;;;;;1.00;0.65;;;10.10;75.50;;;;;;5074693;28;20036;-47
2021/11/02 16:33:34;;;;;;;0.70;0.70;;;10.00;76.10;;;;;;5073480;28;20031;-46
2021/11/02 16:36:38;;;;;;;1.17;0.60;;;9.90;77.50;;;;;;5074261;28;20175;-47
2021/11/02 16:39:19;;;;;;;0.70;0.60;;;9.70;78.70;;;;;;5031869;28;20112;-53
2021/11/02 16:41:51;;;;;;;1.58;0.90;;;9.60;79.80;;;;;;5071713;28;20057;-47
2021/11/02 16:44:29;;;;;;;1.27;1.15;;;9.50;80.60;;;;;;5073906;28;20029;-48
2021/11/02 16:47:07;;;;;;;2.60;1.05;;;9.50;81.20;;;;;;5074144;28;20021;-48
2021/11/02 16:49:34;;;;;;;1.40;1.13;;;9.50;82.20;;;;;;5074100;28;20020;-46
2021/11/02 16:52:28;;;;;;;3.20;1.13;;;9.40;83.30;;;;;;5074930;28;20024;-47
2021/11/02 16:55:11;;;;;;;2.38;2.10;;;9.40;83.90;;;;;;5073751;28;20047;-49
2021/11/02 16:57:36;;;;;;;2.05;0.90;;;9.50;83.80;;;;;;5074303;28;20423;-47
2021/11/02 17:00:28;;;;;;;1.35;1.25;;;9.40;84.30;;;;;;5073999;28;20050;-48
2021/11/02 17:03:04;;;;;;;2.38;1.92;;;9.50;84.10;;;;;;5071839;28;20036;-48
2021/11/02 17:05:36;;;;;;;1.92;1.50;;;9.50;84.10;;;;;;5073297;28;20046;-48
2021/11/02 17:08:02;;;;;;;2.53;1.58;;;9.50;84.90;;;;;;5073479;28;20448;-47
2021/11/02 17:10:41;;;;;;;3.10;2.15;;;9.50;85.00;;;;;;5073578;28;20017;-48
2021/11/02 17:13:09;;;;;;;2.88;1.80;;;9.60;84.60;;;;;;5073689;28;20020;-49
2021/11/02 17:15:53;;;;;;;2.80;2.30;;;9.50;84.40;;;;;;5073656;28;20060;-49
2021/11/02 17:18:46;;;;;;;3.40;1.83;;;9.60;85.10;;;;;;5073618;28;20024;-48
2021/11/02 17:21:14;;;;;;;2.67;1.92;;;9.60;84.70;;;;;;5057241;28;20094;-47
2021/11/02 17:23:44;;;;;;;4.68;2.10;;;9.50;85.40;;;;;;5073421;28;20020;-48
2021/11/02 17:26:12;;;;;;;3.50;2.23;;;9.60;85.00;;;;;;5073343;28;20469;-46
2021/11/02 17:28:40;;;;;;;4.18;2.40;;;9.60;84.60;;;;;;5073042;28;20294;-49
2021/11/02 17:31:07;;;;;;;4.70;2.85;;;9.50;85.40;;;;;;5072899;28;20017;-47
2021/11/02 17:33:35;;;;;;;3.90;2.97;;;9.60;85.00;;;;;;5055588;28;20487;-47
2021/11/02 17:36:03;;;;;;;5.90;3.58;;;9.60;85.00;;;;;;5073015;28;20414;-47
2021/11/02 17:38:30;;;;;;;5.13;3.88;;;9.50;85.30;;;;;;5073068;28;20388;-47
2021/11/02 17:40:59;;;;;;;8.35;4.38;;;9.50;85.10;;;;;;5073210;28;20040;-48
2021/11/02 17:43:25;;;;;;;5.03;3.90;;;9.50;85.10;;;;;;5072753;28;20029;-50
2021/11/02 17:45:52;;;;;;;8.32;5.20;;;9.60;84.30;;;;;;5072757;28;20028;-49
2021/11/02 17:48:19;;;;;;;11.02;5.72;;;9.50;84.20;;;;;;5071268;28;20050;-48
2021/11/02 17:50:46;;;;;;;10.27;5.00;;;9.50;84.60;;;;;;5072587;28;20019;-49
2021/11/02 17:53:12;;;;;;;8.45;6.68;;;9.50;84.40;;;;;;5073003;28;20073;-48
2021/11/02 17:55:38;;;;;;;11.77;7.32;;;9.40;84.80;;;;;;5072465;28;20024;-52
2021/11/02 17:58:05;;;;;;;11.23;6.55;;;9.30;84.90;;;;;;5072671;28;20024;-48
2021/11/02 18:00:31;;;;;;;11.75;7.43;;;9.30;84.80;;;;;;5072782;28;20100;-47
2021/11/02 18:02:58;;;;;;;12.60;8.20;;;9.30;85.30;;;;;;5072113;28;20109;-48
2021/11/02 18:05:30;;;;;;;15.18;7.68;;;9.20;85.40;;;;;;5072081;28;20041;-48
2021/11/02 18:07:58;;;;;;;8.82;6.30;;;9.10;85.60;;;;;;5071890;28;20017;-47